Alton, IL

02:43 PM CDT am 18. September 2014 (GMT -0500)
Alton - Beacon | Change Station
CLOSE
Current Station
Persönliche Wetterstationen
Location: Alton, IL
Höhe: 530 ft
Wetterstationen in der Umgebung

Höhe 530 ft 38.89 °N, 90.19 °W | Updated 15 seconds ago

Teils Wolkig
Teils Wolkig
75.0 °F
gefühlte 77 °F
N
1.0
Wind Wechselnd Wind aus Ost
Gusts 2.0 mph

Heute
Max. -- | schwach -- °F
--% Regenrisiko
Gestern
Max. -- | schwach -- °F
Precip. -- inch
6:44 AM 7:04 PM
Letztes Viertel, 25% visible
Druck 30.06 inch
Sichtweite 10.0 Meilen
Wolken Teils Wolkig 5000 ft
Hitzeindex 77 °F
Taupunkt 59 °F
Feuchtigkeit 58%
Regen 0.00 inch
Schneehöhe Nicht verfügbar..
UV 6 von 12
Pollen 6.20 von 12
Ozon Gut
PM2.5 Mäßig
Flu Activity Nicht verfügbar..
METAR KALN 181845Z 07006KT 10SM SCT050 21/12 A3006

More Conditions Fewer Conditions

Druck 30.06 inch
Sichtweite 10.0 Meilen
Wolken Teils Wolkig 5000 ft
Hitzeindex 77 °F
Taupunkt 59 °F
Feuchtigkeit 58%
Regen 0.00 inch
Schneehöhe Nicht verfügbar..
UV 6 von 12
Pollen 6.20 von 12
Ozon Gut
PM2.5 Mäßig
Flu Activity Nicht verfügbar..
METAR KALN 181845Z 07006KT 10SM SCT050 21/12 A3006

More Conditions Fewer Conditions

10-Day Weather Forecast

Almanac

Astronomie

Sep. 18, 2014 Aufgang Untergang
Genaue Zeit 06:44 CDT 19:04 CDT
Bürgerliche Dämmerung 06:18 CDT 19:30 CDT
Nautische Dämmerung 05:46 CDT 20:01 CDT
Astronomische Dämmerung 05:14 CDT 20:33 CDT
Mond 01:39 CDT 15:53 CDT
Länge des sichtbaren Lichts 13h 12m
Tageslänge
12h 19m
Tomorrow will be 2m 30s shorter.
Letztes Viertel, 25% of the Moon is Illuminated
Heute
Letztes Viertel
Sept 24
Neu
Okt 1
Erstes Viertel
Okt 8
Vollmond
Okt 15
Letztes Viertel

Heutige Rekorde

State Highs State Lows

Community

WunderPhotos

Upload Photos

1,754,421 Fotos hochgeladen!

WunderBlogs® & News

By Dr. Jeff Masters
Director of Meteorology, Weather Underground
By Kari Strenfel
Meteorologist, Weather Underground
By Christopher C. Burt
Weather Historian, Weather Underground
September 18, 2014
September 18, 2014
September 18, 2014

Nearby

Luftqualität

  Luftqualität LQ Index Schadstoff
Gestern Mäßig
PM2.5
Gestern Gut
OZONE
Aktuell Mäßig
PM2.5
Aktuell Gut
OZONE
Donnerstag Mäßig
PM2.5
Freitag Mäßig
PM2.5
Samstag Mäßig
PM2.5
Sonntag Gut
PM2.5

Schneehöhe

Station Depth Höhe
Kein Neuschnee gemeldet.

Erdbebenaktivität

Stadt Distance Mag. Time & Date
No recent earthquake activity has been reported nearby.
Minimum magnitude displayed is 2.5.

küstennahe Wassertemperaturen

Ort Temperatur
Kein Stationsbericht

Wetterstationen in der Umgebung